Time;durP1;ratioP1;P1;durP2;ratioP2;P2;SDS_P1;SDS_P2;PMS_P1;PMS_P2;Temp;Humidity;BMP_temperature;BMP_pressure;BME280_temperature;BME280_humidity;BME280_pressure;Samples;Min_cycle;Max_cycle;Signal;HPM_P1;HPM_P2
2023/04/12 00:02:19;;;;;;;6.88;1.83;;;9.50;99.90;;;;;;5064822;28;20041;-64
2023/04/12 00:04:44;;;;;;;6.68;2.03;;;9.50;99.90;;;;;;5059257;28;20039;-64
2023/04/12 00:07:10;;;;;;;7.95;2.20;;;9.50;99.90;;;;;;5063829;28;20055;-64
2023/04/12 00:09:36;;;;;;;7.28;2.35;;;9.50;99.90;;;;;;5065154;28;20046;-63
2023/04/12 00:12:03;;;;;;;7.55;2.10;;;9.50;99.90;;;;;;5056649;28;20044;-64
2023/04/12 00:14:28;;;;;;;8.20;2.00;;;9.50;99.90;;;;;;5064370;28;20052;-64
2023/04/12 00:16:54;;;;;;;9.48;2.30;;;9.50;99.90;;;;;;5058823;28;20041;-63
2023/04/12 00:19:20;;;;;;;9.77;2.40;;;9.50;99.90;;;;;;5057318;28;20060;-63
2023/04/12 00:21:46;;;;;;;10.15;2.53;;;9.50;99.90;;;;;;5060469;28;20048;-63
2023/04/12 00:24:12;;;;;;;7.95;2.05;;;9.50;99.90;;;;;;5057895;28;20391;-63
2023/04/12 00:26:38;;;;;;;9.35;2.58;;;9.50;99.90;;;;;;5057146;28;20135;-64
2023/04/12 00:29:03;;;;;;;6.80;2.00;;;9.50;99.90;;;;;;5059394;28;20111;-63
2023/04/12 00:31:29;;;;;;;9.57;2.35;;;9.50;99.90;;;;;;5061324;28;20462;-63
2023/04/12 00:33:55;;;;;;;9.20;2.35;;;9.60;99.90;;;;;;5059388;28;20051;-63
2023/04/12 00:36:21;;;;;;;8.98;2.20;;;9.50;99.90;;;;;;5059192;28;20036;-63
2023/04/12 00:38:46;;;;;;;11.65;2.40;;;9.60;99.90;;;;;;5065338;28;20156;-63
2023/04/12 00:41:13;;;;;;;9.20;2.42;;;9.50;99.90;;;;;;5060223;28;20120;-63
2023/04/12 00:43:42;;;;;;;9.30;2.35;;;9.50;99.90;;;;;;5057472;28;20047;-63
2023/04/12 00:46:08;;;;;;;14.32;2.72;;;9.50;99.90;;;;;;5057042;28;20106;-63
2023/04/12 00:48:34;;;;;;;9.02;2.22;;;9.50;99.90;;;;;;5060229;28;20132;-63
2023/04/12 00:51:00;;;;;;;9.63;2.38;;;9.50;99.90;;;;;;5056479;28;20049;-63
2023/04/12 00:53:26;;;;;;;7.95;2.40;;;9.50;99.90;;;;;;5054271;28;20056;-63
2023/04/12 00:55:53;;;;;;;9.98;2.20;;;9.40;99.90;;;;;;5056311;28;20143;-63
2023/04/12 00:58:20;;;;;;;10.23;2.70;;;9.40;99.90;;;;;;5058976;28;20051;-63
2023/04/12 01:00:49;;;;;;;7.53;2.78;;;9.50;99.90;;;;;;5056012;28;20037;-63
2023/04/12 01:03:26;;;;;;;8.20;2.10;;;9.40;99.90;;;;;;5057550;28;20070;-63
2023/04/12 01:06:17;;;;;;;8.70;1.83;;;9.40;99.90;;;;;;5052611;28;20393;-63
2023/04/12 01:09:14;;;;;;;8.68;2.10;;;9.40;99.90;;;;;;5060600;28;20116;-63
2023/04/12 01:12:15;;;;;;;8.57;2.03;;;9.40;99.90;;;;;;5063180;28;20416;-63
2023/04/12 01:14:43;;;;;;;9.43;3.00;;;9.40;99.90;;;;;;5056729;28;20053;-62
2023/04/12 01:17:13;;;;;;;10.40;2.17;;;9.30;99.90;;;;;;5060418;28;20402;-63
2023/04/12 01:19:56;;;;;;;9.43;2.05;;;9.30;99.90;;;;;;5053447;28;20112;-63
2023/04/12 01:22:36;;;;;;;11.27;2.20;;;9.30;99.90;;;;;;5055206;28;20033;-63
2023/04/12 01:25:22;;;;;;;9.90;2.20;;;9.30;99.90;;;;;;5053907;28;20719;-63
2023/04/12 01:28:01;;;;;;;7.22;2.00;;;9.30;99.90;;;;;;5056202;28;20049;-63
2023/04/12 01:30:28;;;;;;;8.15;2.00;;;9.30;99.90;;;;;;5051446;28;20052;-62
2023/04/12 01:32:55;;;;;;;9.75;2.92;;;9.30;99.90;;;;;;5055555;28;20491;-63
2023/04/12 01:35:26;;;;;;;7.40;1.98;;;9.20;99.90;;;;;;5056520;28;20088;-63
2023/04/12 01:37:52;;;;;;;10.25;2.05;;;9.20;99.90;;;;;;5065110;28;20133;-63
2023/04/12 01:40:18;;;;;;;5.32;2.00;;;9.20;99.90;;;;;;5058714;28;20229;-63
2023/04/12 01:42:44;;;;;;;7.13;1.73;;;9.30;99.90;;;;;;5056413;28;20037;-63
2023/04/12 01:45:10;;;;;;;6.80;1.98;;;9.20;99.90;;;;;;5060588;28;20472;-63
2023/04/12 01:47:37;;;;;;;8.50;1.95;;;9.20;99.90;;;;;;5066965;28;20474;-63
2023/04/12 01:50:17;;;;;;;9.20;2.20;;;9.20;99.90;;;;;;5073543;28;20553;-63
2023/04/12 01:53:03;;;;;;;5.35;2.08;;;9.20;99.90;;;;;;5060077;28;20041;-63
2023/04/12 01:55:31;;;;;;;6.90;1.70;;;9.20;99.90;;;;;;5063626;28;20668;-63
2023/04/12 01:58:00;;;;;;;8.23;2.03;;;9.10;99.90;;;;;;5056045;28;20422;-63
2023/04/12 02:00:26;;;;;;;8.52;2.20;;;9.10;99.90;;;;;;5061950;28;20053;-63
2023/04/12 02:02:52;;;;;;;5.97;1.75;;;9.10;99.90;;;;;;5060100;28;20060;-63
2023/04/12 02:05:19;;;;;;;7.65;1.80;;;9.10;99.90;;;;;;5056053;28;20071;-63
2023/04/12 02:07:46;;;;;;;4.20;1.80;;;9.10;99.90;;;;;;5060494;28;20044;-63
2023/04/12 02:10:14;;;;;;;10.15;2.45;;;9.10;99.90;;;;;;5064165;28;20115;-63
2023/04/12 02:12:40;;;;;;;8.52;2.15;;;9.00;99.90;;;;;;5066192;28;20613;-63
2023/04/12 02:15:07;;;;;;;7.65;2.47;;;9.00;99.90;;;;;;5062910;28;20480;-63
2023/04/12 02:17:36;;;;;;;8.48;1.95;;;9.00;99.90;;;;;;5065840;28;20483;-62
2023/04/12 02:20:06;;;;;;;8.25;2.33;;;9.00;99.90;;;;;;5056817;28;20041;-63
2023/04/12 02:22:31;;;;;;;9.10;2.42;;;9.00;99.90;;;;;;5059117;28;20408;-63
2023/04/12 02:24:58;;;;;;;7.40;1.80;;;9.00;99.90;;;;;;5070660;28;20089;-63
2023/04/12 02:27:24;;;;;;;8.73;2.45;;;9.00;99.90;;;;;;5058758;28;20052;-63
2023/04/12 02:29:49;;;;;;;8.43;2.45;;;9.00;99.90;;;;;;5061784;28;20372;-63
2023/04/12 02:32:15;;;;;;;7.15;1.90;;;9.00;99.90;;;;;;5059603;28;20036;-63
2023/04/12 02:34:41;;;;;;;8.77;2.40;;;8.90;99.90;;;;;;5059390;28;20079;-63
2023/04/12 02:37:06;;;;;;;6.45;2.10;;;9.00;99.90;;;;;;5057365;28;20044;-63
2023/04/12 02:39:33;;;;;;;7.50;2.55;;;9.00;99.90;;;;;;5052340;28;20037;-63
2023/04/12 02:42:00;;;;;;;8.57;2.30;;;8.90;99.90;;;;;;5054251;28;20072;-63
2023/04/12 02:44:28;;;;;;;7.72;2.22;;;8.90;99.90;;;;;;5054183;28;20045;-63
2023/04/12 02:46:55;;;;;;;8.35;2.80;;;8.90;99.90;;;;;;5052619;28;20040;-63
2023/04/12 02:49:20;;;;;;;7.53;2.17;;;8.90;99.90;;;;;;5055617;28;20055;-63
2023/04/12 02:51:46;;;;;;;7.68;2.53;;;8.90;99.90;;;;;;5057010;28;20040;-63
2023/04/12 02:54:11;;;;;;;9.50;2.40;;;8.90;99.90;;;;;;5056245;28;20037;-63
2023/04/12 02:56:37;;;;;;;9.38;2.42;;;8.80;99.90;;;;;;5064612;28;20050;-62
2023/04/12 02:59:02;;;;;;;7.18;2.22;;;8.80;99.90;;;;;;5051117;28;20120;-63
2023/04/12 03:01:28;;;;;;;6.82;2.10;;;8.90;99.90;;;;;;5056835;28;20307;-63
2023/04/12 03:03:54;;;;;;;5.07;2.17;;;8.80;99.90;;;;;;5058507;28;20971;-64
2023/04/12 03:06:19;;;;;;;7.78;2.00;;;8.80;99.90;;;;;;5059838;28;20037;-63
2023/04/12 03:08:45;;;;;;;8.05;2.33;;;8.80;99.90;;;;;;5059200;28;20232;-63
2023/04/12 03:11:10;;;;;;;6.05;1.60;;;8.80;99.90;;;;;;5058534;28;20055;-63
2023/04/12 03:13:36;;;;;;;6.43;1.70;;;8.80;99.90;;;;;;5060304;28;20048;-63
2023/04/12 03:16:21;;;;;;;8.07;1.90;;;8.80;99.90;;;;;;5059747;28;20329;-63
2023/04/12 03:18:47;;;;;;;5.65;1.85;;;8.90;99.90;;;;;;5057681;28;20198;-63
2023/04/12 03:21:12;;;;;;;6.45;1.80;;;8.80;99.90;;;;;;5062139;28;20223;-63
2023/04/12 03:23:38;;;;;;;7.18;1.77;;;8.80;99.90;;;;;;5061248;28;20112;-63
2023/04/12 03:26:04;;;;;;;6.45;1.83;;;8.80;99.90;;;;;;5057643;28;20048;-63
2023/04/12 03:28:29;;;;;;;6.50;1.88;;;8.80;99.90;;;;;;5060097;28;20051;-63
2023/04/12 03:30:55;;;;;;;5.88;1.65;;;8.80;99.90;;;;;;5061969;28;20040;-63
2023/04/12 03:33:21;;;;;;;6.32;1.95;;;8.80;99.90;;;;;;5059065;28;20489;-63
2023/04/12 03:35:46;;;;;;;6.97;1.95;;;8.80;99.90;;;;;;5060750;28;20032;-63
2023/04/12 03:38:12;;;;;;;7.00;2.25;;;8.80;99.90;;;;;;5062846;28;20158;-63
2023/04/12 03:40:37;;;;;;;8.60;2.45;;;8.80;99.90;;;;;;5058450;28;20044;-63
2023/04/12 03:43:03;;;;;;;4.00;1.70;;;8.80;99.90;;;;;;5063611;28;20432;-63
2023/04/12 03:45:29;;;;;;;7.32;1.73;;;8.80;99.90;;;;;;5069690;28;20453;-63
2023/04/12 03:47:54;;;;;;;7.45;2.13;;;8.80;99.90;;;;;;5065789;28;20044;-63
2023/04/12 03:50:21;;;;;;;7.57;1.90;;;8.80;99.90;;;;;;5059157;28;20067;-63
2023/04/12 03:52:46;;;;;;;7.50;2.22;;;8.80;99.90;;;;;;5066621;28;20040;-62
2023/04/12 03:55:16;;;;;;;8.20;2.05;;;8.80;99.90;;;;;;5057914;28;20082;-62
2023/04/12 03:57:42;;;;;;;5.45;1.70;;;8.80;99.90;;;;;;5050579;28;20037;-62
2023/04/12 04:00:08;;;;;;;6.13;1.80;;;8.80;99.90;;;;;;5053466;28;20049;-63
2023/04/12 04:02:35;;;;;;;6.97;1.83;;;8.80;99.90;;;;;;5071612;28;20037;-63
2023/04/12 04:05:02;;;;;;;7.93;1.85;;;8.80;99.90;;;;;;5064954;28;20391;-63
2023/04/12 04:07:28;;;;;;;6.63;2.05;;;8.80;99.90;;;;;;5055846;28;20060;-63
2023/04/12 04:09:54;;;;;;;6.88;2.15;;;8.80;99.90;;;;;;5055249;28;20044;-62
2023/04/12 04:12:20;;;;;;;6.03;2.03;;;8.80;99.90;;;;;;5053316;28;20086;-63
2023/04/12 04:14:45;;;;;;;7.15;2.42;;;8.80;99.90;;;;;;5053669;28;20033;-63
2023/04/12 04:17:11;;;;;;;8.52;2.53;;;8.80;99.90;;;;;;5053145;28;20133;-63
2023/04/12 04:19:37;;;;;;;10.85;2.90;;;8.80;99.90;;;;;;5052689;28;20045;-64
2023/04/12 04:22:03;;;;;;;8.32;3.08;;;8.80;99.90;;;;;;5056308;28;20451;-63
2023/04/12 04:24:29;;;;;;;6.18;2.78;;;8.80;99.90;;;;;;5054586;28;20044;-63
2023/04/12 04:26:54;;;;;;;7.63;3.33;;;8.70;99.90;;;;;;5058083;28;20103;-63
2023/04/12 04:29:20;;;;;;;11.02;4.53;;;8.70;99.90;;;;;;5051947;28;20147;-63
2023/04/12 04:31:46;;;;;;;8.75;3.90;;;8.70;99.90;;;;;;5053476;28;20048;-62
2023/04/12 04:34:12;;;;;;;8.52;4.40;;;8.70;99.90;;;;;;5065973;28;20041;-62
2023/04/12 04:36:40;;;;;;;10.25;5.43;;;8.70;99.90;;;;;;5060917;28;20497;-63
2023/04/12 04:39:06;;;;;;;10.73;5.50;;;8.70;99.90;;;;;;5064178;28;20032;-63
2023/04/12 04:41:38;;;;;;;9.02;5.22;;;8.70;99.90;;;;;;5063310;28;20482;-63
2023/04/12 04:44:09;;;;;;;11.70;6.60;;;8.70;99.90;;;;;;5061586;28;20411;-63
2023/04/12 04:46:36;;;;;;;10.98;6.10;;;8.60;99.90;;;;;;5056532;28;20571;-63
2023/04/12 04:49:03;;;;;;;12.73;6.55;;;8.70;99.90;;;;;;5059823;28;20423;-63
2023/04/12 04:51:28;;;;;;;12.45;6.70;;;8.60;99.90;;;;;;5061921;28;20045;-63
2023/04/12 04:53:54;;;;;;;13.45;7.53;;;8.60;99.90;;;;;;5057513;28;20126;-63
2023/04/12 04:56:22;;;;;;;14.20;6.78;;;8.60;99.90;;;;;;5057563;28;20120;-64
2023/04/12 04:58:48;;;;;;;11.25;6.40;;;8.60;99.90;;;;;;5058338;28;20101;-63
2023/04/12 05:01:15;;;;;;;14.50;6.70;;;8.50;99.90;;;;;;5060609;28;20044;-63
2023/04/12 05:03:43;;;;;;;9.48;6.18;;;8.50;99.90;;;;;;5055143;28;20041;-63
2023/04/12 05:06:10;;;;;;;13.07;6.55;;;8.50;99.90;;;;;;5054046;28;20206;-63
2023/04/12 05:08:36;;;;;;;10.23;5.75;;;8.50;99.90;;;;;;5053725;28;20045;-63
2023/04/12 05:11:01;;;;;;;10.35;6.47;;;8.50;99.90;;;;;;5052336;28;20033;-63
2023/04/12 05:13:27;;;;;;;9.70;5.43;;;8.50;99.90;;;;;;5057007;28;20350;-63
2023/04/12 05:15:53;;;;;;;12.45;5.68;;;8.50;99.90;;;;;;5050777;28;20336;-62
2023/04/12 05:18:19;;;;;;;8.70;5.00;;;8.50;99.90;;;;;;5052975;28;20245;-63
2023/04/12 05:20:45;;;;;;;12.05;4.97;;;8.50;99.90;;;;;;5049064;28;20037;-63
2023/04/12 05:23:14;;;;;;;10.32;4.70;;;8.50;99.90;;;;;;5049357;28;20468;-63
2023/04/12 05:25:45;;;;;;;12.70;5.30;;;8.50;99.90;;;;;;5051988;28;20044;-63
2023/04/12 05:28:13;;;;;;;9.45;4.70;;;8.50;99.90;;;;;;5058993;28;20055;-63
2023/04/12 05:30:39;;;;;;;10.25;4.50;;;8.50;99.90;;;;;;5058177;28;20492;-63
2023/04/12 05:33:05;;;;;;;9.93;4.32;;;8.50;99.90;;;;;;5064644;28;20036;-62
2023/04/12 05:35:30;;;;;;;9.15;4.10;;;8.50;99.90;;;;;;5058048;28;20089;-63
2023/04/12 05:37:56;;;;;;;8.18;3.88;;;8.50;99.90;;;;;;5058757;28;20210;-63
2023/04/12 05:40:21;;;;;;;8.45;4.43;;;8.50;99.90;;;;;;5062107;28;20048;-63
2023/04/12 05:42:47;;;;;;;9.80;4.00;;;8.50;99.90;;;;;;5051654;28;20055;-63
2023/04/12 05:45:12;;;;;;;7.90;3.92;;;8.50;99.90;;;;;;5055263;28;20118;-63
2023/04/12 05:47:38;;;;;;;8.65;4.07;;;8.50;99.90;;;;;;5069241;28;20399;-63
2023/04/12 05:50:05;;;;;;;8.00;4.05;;;8.50;99.90;;;;;;5067327;28;20040;-63
2023/04/12 05:52:31;;;;;;;9.38;4.20;;;8.50;99.90;;;;;;5069994;28;20455;-62
2023/04/12 05:54:56;;;;;;;9.02;4.05;;;8.50;99.90;;;;;;5068325;28;20129;-63
2023/04/12 05:57:22;;;;;;;7.95;4.00;;;8.50;99.90;;;;;;5068276;28;20094;-63
2023/04/12 05:59:48;;;;;;;8.57;3.90;;;8.50;99.90;;;;;;5065888;28;20451;-62
2023/04/12 06:02:13;;;;;;;8.68;4.72;;;8.50;99.90;;;;;;5069191;28;20055;-63
2023/04/12 06:04:39;;;;;;;10.82;4.40;;;8.50;99.90;;;;;;5062059;28;20655;-62
2023/04/12 06:07:05;;;;;;;8.57;3.83;;;8.50;99.90;;;;;;5061193;28;20048;-63
2023/04/12 06:09:31;;;;;;;8.40;3.83;;;8.50;99.90;;;;;;5058862;28;20045;-63
2023/04/12 06:11:56;;;;;;;6.88;3.60;;;8.50;99.90;;;;;;5054867;28;20036;-63
2023/04/12 06:14:22;;;;;;;8.85;4.05;;;8.50;99.90;;;;;;5051279;28;20045;-62
2023/04/12 06:16:48;;;;;;;8.95;4.25;;;8.50;99.90;;;;;;5057322;28;20458;-63
2023/04/12 06:19:13;;;;;;;10.18;4.55;;;8.50;99.90;;;;;;5058082;28;20044;-62
2023/04/12 06:21:39;;;;;;;9.32;4.45;;;8.50;99.90;;;;;;5056522;28;20471;-62
2023/04/12 06:24:05;;;;;;;9.40;3.88;;;8.50;99.90;;;;;;5052287;28;20122;-62
2023/04/12 06:26:31;;;;;;;9.02;4.30;;;8.50;99.90;;;;;;5064977;28;20063;-62
2023/04/12 06:28:57;;;;;;;7.53;4.03;;;8.50;99.90;;;;;;5062611;28;20071;-62
2023/04/12 06:31:22;;;;;;;6.88;4.13;;;8.50;99.90;;;;;;5051437;28;20045;-62
2023/04/12 06:33:49;;;;;;;8.77;4.20;;;8.50;99.90;;;;;;5051626;28;20037;-62
2023/04/12 06:36:15;;;;;;;9.48;4.35;;;8.50;99.90;;;;;;5057961;28;20135;-63
2023/04/12 06:38:41;;;;;;;11.00;5.07;;;8.60;99.90;;;;;;5057728;28;20484;-62
2023/04/12 06:41:06;;;;;;;8.90;4.57;;;8.60;99.90;;;;;;5063549;28;20033;-62
2023/04/12 06:43:32;;;;;;;9.20;4.75;;;8.60;99.90;;;;;;5057116;28;20055;-62
2023/04/12 06:45:58;;;;;;;7.00;4.35;;;8.60;99.90;;;;;;5060549;28;20052;-62
2023/04/12 06:48:24;;;;;;;7.80;4.60;;;8.60;99.90;;;;;;5052845;28;20113;-61
2023/04/12 06:50:50;;;;;;;8.00;4.63;;;8.60;99.90;;;;;;5064492;28;20551;-61
2023/04/12 06:53:15;;;;;;;9.23;4.47;;;8.60;99.90;;;;;;5061192;28;20713;-61
2023/04/12 06:55:41;;;;;;;9.05;4.80;;;8.60;99.90;;;;;;5067162;28;20050;-61
2023/04/12 06:58:07;;;;;;;9.23;5.03;;;8.60;99.90;;;;;;5067553;28;20066;-61
2023/04/12 07:00:32;;;;;;;7.85;4.80;;;8.60;99.90;;;;;;5064622;28;20409;-61
2023/04/12 07:02:58;;;;;;;6.55;4.65;;;8.60;99.90;;;;;;5068513;28;20102;-61
2023/04/12 07:05:23;;;;;;;7.63;4.80;;;8.60;99.90;;;;;;5068454;28;20415;-61
2023/04/12 07:07:49;;;;;;;7.75;4.70;;;8.60;99.90;;;;;;5065470;28;20115;-61
2023/04/12 07:10:15;;;;;;;6.65;4.90;;;8.60;99.90;;;;;;5067657;28;20124;-61
2023/04/12 07:12:41;;;;;;;9.60;4.80;;;8.60;99.90;;;;;;5066013;28;20436;-61
2023/04/12 07:15:07;;;;;;;9.07;5.10;;;8.60;99.90;;;;;;5066202;28;20106;-62
2023/04/12 07:17:33;;;;;;;7.65;4.93;;;8.60;99.90;;;;;;5065788;28;20040;-62
2023/04/12 07:19:58;;;;;;;10.77;5.38;;;8.60;99.90;;;;;;5057015;28;20622;-61
2023/04/12 07:22:24;;;;;;;7.68;4.82;;;8.60;99.90;;;;;;5066866;28;20028;-62
2023/04/12 07:24:50;;;;;;;7.43;4.97;;;8.70;99.90;;;;;;5063884;28;20048;-62
2023/04/12 07:27:16;;;;;;;9.50;5.15;;;8.70;99.90;;;;;;5064854;28;20049;-61
2023/04/12 07:29:42;;;;;;;7.22;5.10;;;8.70;99.90;;;;;;5066450;28;20041;-61
2023/04/12 07:32:08;;;;;;;8.25;5.47;;;8.70;99.90;;;;;;5069136;28;20060;-62
2023/04/12 07:34:35;;;;;;;7.85;4.93;;;8.70;99.90;;;;;;5068781;28;20041;-62
2023/04/12 07:37:01;;;;;;;9.05;5.68;;;8.70;99.90;;;;;;5069116;28;20060;-62
2023/04/12 07:39:28;;;;;;;9.35;5.50;;;8.80;99.90;;;;;;5069588;28;20039;-65
2023/04/12 07:41:54;;;;;;;7.68;5.75;;;8.80;99.90;;;;;;5065317;28;20045;-62
2023/04/12 07:44:20;;;;;;;9.15;5.85;;;8.80;99.90;;;;;;5063435;28;20060;-62
2023/04/12 07:46:46;;;;;;;9.52;5.50;;;8.90;99.90;;;;;;5069983;28;20040;-61
2023/04/12 07:49:12;;;;;;;7.88;5.47;;;8.90;99.90;;;;;;5068911;28;20039;-61
2023/04/12 07:51:37;;;;;;;10.32;5.50;;;8.90;99.90;;;;;;5070456;28;20045;-62
2023/04/12 07:54:03;;;;;;;8.05;5.97;;;9.00;99.90;;;;;;5063875;28;20181;-62
2023/04/12 07:56:32;;;;;;;8.63;5.72;;;9.00;99.90;;;;;;5065613;28;20048;-62
2023/04/12 07:58:57;;;;;;;7.85;5.40;;;9.00;99.90;;;;;;5068712;28;20048;-61
2023/04/12 08:01:23;;;;;;;6.82;4.88;;;9.00;99.90;;;;;;5063004;28;20052;-61
2023/04/12 08:03:49;;;;;;;8.85;5.63;;;9.10;99.90;;;;;;5066068;28;20062;-63
2023/04/12 08:06:14;;;;;;;7.60;5.60;;;9.20;99.90;;;;;;5062177;28;20215;-61
2023/04/12 08:08:40;;;;;;;8.48;5.85;;;9.30;99.90;;;;;;5069643;28;20044;-61
2023/04/12 08:11:05;;;;;;;8.93;5.80;;;9.30;99.90;;;;;;5063734;28;20039;-62
2023/04/12 08:13:32;;;;;;;7.57;5.72;;;9.30;99.90;;;;;;5069047;28;20130;-61
2023/04/12 08:15:58;;;;;;;7.70;5.78;;;9.30;99.90;;;;;;5066576;28;20102;-62
2023/04/12 08:18:24;;;;;;;10.57;6.55;;;9.40;99.90;;;;;;5065925;28;20539;-62
2023/04/12 08:20:49;;;;;;;8.50;5.50;;;9.40;99.90;;;;;;5064877;28;20113;-61
2023/04/12 08:23:15;;;;;;;7.68;5.68;;;9.50;99.90;;;;;;5064482;28;20053;-62
2023/04/12 08:25:41;;;;;;;7.25;5.47;;;9.50;99.90;;;;;;5058145;28;20033;-61
2023/04/12 08:28:10;;;;;;;7.75;5.35;;;9.50;99.90;;;;;;5048594;28;20452;-61
2023/04/12 08:30:35;;;;;;;8.43;5.60;;;9.50;99.90;;;;;;5058438;28;20380;-61
2023/04/12 08:33:01;;;;;;;8.73;5.85;;;9.50;99.90;;;;;;5058326;28;20051;-62
2023/04/12 08:35:27;;;;;;;6.50;4.88;;;9.50;99.90;;;;;;5056463;28;20106;-62
2023/04/12 08:37:52;;;;;;;7.03;4.80;;;9.60;99.90;;;;;;5065064;28;20670;-62
2023/04/12 08:40:20;;;;;;;6.35;4.70;;;9.60;99.90;;;;;;5064672;28;20072;-62
2023/04/12 08:42:46;;;;;;;6.82;4.35;;;9.60;99.90;;;;;;5062750;28;20123;-61
2023/04/12 08:45:12;;;;;;;5.75;4.50;;;9.60;99.90;;;;;;5065077;28;20040;-61
2023/04/12 08:47:43;;;;;;;6.63;4.10;;;9.70;99.90;;;;;;5061751;28;20043;-61
2023/04/12 08:50:12;;;;;;;5.95;4.47;;;9.70;99.90;;;;;;5061119;28;20055;-62
2023/04/12 08:52:39;;;;;;;7.80;4.60;;;9.70;99.90;;;;;;5060961;28;20052;-62
2023/04/12 08:55:05;;;;;;;7.05;4.15;;;9.70;99.90;;;;;;5064553;28;20053;-62
2023/04/12 08:57:31;;;;;;;6.18;4.10;;;9.80;99.90;;;;;;5065504;28;20118;-62
2023/04/12 09:00:02;;;;;;;6.95;4.47;;;9.90;99.90;;;;;;5061102;28;20092;-61
2023/04/12 09:02:28;;;;;;;6.93;4.53;;;9.80;99.90;;;;;;5058576;28;20052;-62
2023/04/12 09:04:54;;;;;;;7.07;4.10;;;9.90;99.90;;;;;;5057332;28;20045;-62
2023/04/12 09:07:22;;;;;;;7.32;4.03;;;10.00;99.90;;;;;;5063415;28;20044;-62
2023/04/12 09:09:48;;;;;;;6.38;3.85;;;10.10;99.90;;;;;;5064951;28;20032;-61
2023/04/12 09:12:15;;;;;;;5.35;3.28;;;10.30;99.90;;;;;;5061305;28;20471;-62
2023/04/12 09:14:43;;;;;;;6.72;4.10;;;10.40;99.90;;;;;;5063675;28;20128;-62
2023/04/12 09:17:26;;;;;;;8.35;3.45;;;10.60;99.90;;;;;;5060876;28;20500;-62
2023/04/12 09:19:54;;;;;;;9.18;3.42;;;10.60;99.90;;;;;;5060684;28;20391;-62
2023/04/12 09:22:35;;;;;;;7.78;3.28;;;10.70;99.90;;;;;;5059880;28;20044;-61
2023/04/12 09:25:02;;;;;;;6.47;3.35;;;10.70;99.90;;;;;;5051404;28;20071;-62
2023/04/12 09:27:28;;;;;;;9.88;3.55;;;10.70;99.90;;;;;;5062784;28;20059;-63
2023/04/12 09:30:10;;;;;;;8.38;3.33;;;10.70;99.90;;;;;;5064529;28;20058;-63
2023/04/12 09:32:36;;;;;;;8.23;3.53;;;10.70;99.90;;;;;;5060635;28;20127;-61
2023/04/12 09:35:04;;;;;;;7.28;3.17;;;10.80;99.90;;;;;;5061005;28;20547;-62
2023/04/12 09:37:30;;;;;;;8.80;3.50;;;10.90;99.90;;;;;;5061116;28;20110;-62
2023/04/12 09:40:06;;;;;;;8.88;3.80;;;11.10;99.90;;;;;;5060417;28;20055;-63
2023/04/12 09:42:33;;;;;;;8.02;3.15;;;11.40;99.90;;;;;;5051454;28;20040;-62
2023/04/12 09:45:00;;;;;;;7.53;3.70;;;11.60;99.90;;;;;;5064218;28;20102;-62
2023/04/12 09:47:39;;;;;;;10.70;3.85;;;11.80;99.90;;;;;;5060700;28;20132;-63
2023/04/12 09:50:08;;;;;;;8.63;3.88;;;12.00;99.90;;;;;;5060956;28;20059;-62
2023/04/12 09:52:40;;;;;;;8.10;3.40;;;12.20;99.90;;;;;;5060703;28;20434;-62
2023/04/12 09:55:08;;;;;;;8.27;3.30;;;12.30;99.90;;;;;;5061081;28;20142;-62
2023/04/12 09:57:44;;;;;;;10.35;3.53;;;12.40;99.90;;;;;;5061850;28;20435;-62
2023/04/12 10:00:15;;;;;;;8.68;3.38;;;12.50;99.90;;;;;;5063164;28;20389;-62
2023/04/12 10:02:43;;;;;;;10.40;3.72;;;12.60;99.90;;;;;;5062493;28;20044;-62
2023/04/12 10:05:13;;;;;;;10.55;3.60;;;12.60;99.90;;;;;;5062744;28;20036;-62
2023/04/12 10:07:42;;;;;;;12.00;3.72;;;12.60;99.90;;;;;;5059070;28;20051;-61
2023/04/12 10:10:13;;;;;;;10.98;2.80;;;12.80;99.90;;;;;;5051183;28;20519;-61
2023/04/12 10:12:40;;;;;;;9.18;2.80;;;12.90;99.90;;;;;;5066550;28;20055;-62
2023/04/12 10:15:11;;;;;;;12.57;2.83;;;13.10;99.90;;;;;;5068027;28;20067;-62
2023/04/12 10:17:45;;;;;;;8.63;2.95;;;13.50;99.90;;;;;;5057122;28;20040;-63
2023/04/12 10:20:12;;;;;;;11.52;2.70;;;13.70;99.90;;;;;;5064347;28;20044;-62
2023/04/12 10:22:44;;;;;;;12.23;2.97;;;13.90;99.90;;;;;;5050099;28;20510;-63
2023/04/12 10:25:14;;;;;;;12.88;2.58;;;14.00;99.90;;;;;;5054933;28;20510;-63
2023/04/12 10:27:44;;;;;;;13.80;3.10;;;14.20;99.90;;;;;;5061731;28;20074;-62
2023/04/12 10:30:22;;;;;;;12.90;2.67;;;14.10;99.90;;;;;;5050254;28;20037;-62
2023/04/12 10:33:08;;;;;;;13.13;2.95;;;14.20;99.90;;;;;;5064051;28;20048;-63
2023/04/12 10:35:55;;;;;;;14.38;3.17;;;14.10;99.90;;;;;;5068155;28;20044;-63
2023/04/12 10:38:23;;;;;;;12.30;2.72;;;14.00;99.90;;;;;;5064309;28;20056;-62
2023/04/12 10:41:10;;;;;;;12.18;2.47;;;13.80;99.90;;;;;;5070141;28;20119;-62
2023/04/12 10:43:36;;;;;;;11.65;2.70;;;13.80;99.90;;;;;;5067602;28;20071;-62
2023/04/12 10:46:05;;;;;;;9.48;2.20;;;13.90;99.90;;;;;;5067021;28;20044;-64
2023/04/12 10:48:36;;;;;;;11.00;2.42;;;13.80;99.90;;;;;;5063340;28;20063;-62
2023/04/12 10:51:27;;;;;;;11.55;2.72;;;14.10;99.90;;;;;;5069068;28;20397;-62
2023/04/12 10:54:14;;;;;;;9.95;2.55;;;14.20;99.90;;;;;;5066360;28;20098;-61
2023/04/12 10:56:41;;;;;;;8.45;2.60;;;14.30;99.90;;;;;;5063195;28;20063;-62
2023/04/12 10:59:08;;;;;;;9.70;2.78;;;14.30;99.90;;;;;;5073765;28;20045;-62
2023/04/12 11:01:34;;;;;;;13.35;2.78;;;14.30;99.90;;;;;;5063298;28;20040;-63
2023/04/12 11:04:19;;;;;;;9.68;2.78;;;14.50;99.90;;;;;;5064930;28;20043;-63
2023/04/12 11:06:51;;;;;;;8.73;2.67;;;14.50;99.90;;;;;;5068017;28;20071;-61
2023/04/12 11:09:33;;;;;;;13.25;3.10;;;14.50;99.90;;;;;;5069347;28;20045;-65
2023/04/12 11:12:04;;;;;;;13.38;2.88;;;14.60;99.90;;;;;;5065741;28;20094;-62
2023/04/12 11:14:48;;;;;;;11.25;2.58;;;14.70;99.90;;;;;;5065996;28;20048;-63
2023/04/12 11:17:13;;;;;;;10.75;2.40;;;14.70;99.90;;;;;;5068265;28;20053;-62
2023/04/12 11:19:43;;;;;;;12.30;2.67;;;14.70;99.90;;;;;;5066741;28;20056;-63
2023/04/12 11:22:13;;;;;;;13.10;2.65;;;14.70;99.90;;;;;;5070869;28;20082;-63
2023/04/12 11:24:50;;;;;;;9.98;2.28;;;14.90;99.90;;;;;;5071246;28;20052;-63
2023/04/12 11:27:17;;;;;;;10.18;2.20;;;15.00;99.90;;;;;;5067860;28;20121;-63
2023/04/12 11:29:45;;;;;;;12.02;2.47;;;14.90;99.90;;;;;;5062708;28;20032;-62
2023/04/12 11:32:12;;;;;;;14.43;2.80;;;14.90;99.90;;;;;;5060144;28;20086;-62
2023/04/12 11:34:39;;;;;;;9.73;2.35;;;14.80;99.90;;;;;;5065205;28;20044;-62
2023/04/12 11:37:09;;;;;;;16.10;2.75;;;14.90;99.90;;;;;;5060719;28;20059;-63
2023/04/12 11:39:39;;;;;;;14.55;2.70;;;14.80;99.90;;;;;;5060812;28;20168;-64
2023/04/12 11:42:07;;;;;;;13.48;2.63;;;14.90;99.90;;;;;;5065628;28;20144;-64
2023/04/12 11:44:33;;;;;;;9.15;1.98;;;14.90;99.90;;;;;;5055433;28;20115;-65
2023/04/12 11:47:00;;;;;;;15.30;2.90;;;15.00;99.90;;;;;;5069226;28;20717;-64
2023/04/12 11:49:26;;;;;;;11.70;2.50;;;14.80;99.90;;;;;;5068360;28;20040;-64
2023/04/12 11:52:01;;;;;;;14.05;2.42;;;14.80;99.90;;;;;;5064107;28;20075;-64
2023/04/12 11:54:28;;;;;;;12.23;2.58;;;14.70;99.90;;;;;;5069269;28;20111;-64
2023/04/12 11:56:56;;;;;;;13.25;2.80;;;14.60;99.90;;;;;;5064681;28;20044;-64
2023/04/12 11:59:28;;;;;;;13.32;2.33;;;14.40;99.90;;;;;;5066830;28;20436;-64
2023/04/12 12:01:54;;;;;;;11.98;2.92;;;14.40;99.90;;;;;;5068049;28;20103;-63
2023/04/12 12:04:19;;;;;;;13.13;2.38;;;14.40;99.90;;;;;;5064808;28;20047;-64
2023/04/12 12:06:45;;;;;;;13.05;2.60;;;14.40;99.90;;;;;;5068742;28;20143;-64
2023/04/12 12:09:12;;;;;;;16.48;2.50;;;14.30;99.90;;;;;;5067251;28;21782;-64
2023/04/12 12:11:37;;;;;;;12.57;2.50;;;14.20;99.90;;;;;;5062026;28;20041;-64
2023/04/12 12:14:03;;;;;;;11.48;2.55;;;14.30;99.90;;;;;;5065908;28;20063;-64
2023/04/12 12:16:29;;;;;;;11.20;2.42;;;14.40;99.90;;;;;;5076563;28;20514;-65
2023/04/12 12:18:56;;;;;;;14.00;2.65;;;14.40;99.90;;;;;;5063415;28;20366;-65
2023/04/12 12:21:22;;;;;;;15.90;2.67;;;14.50;99.90;;;;;;5059118;28;20127;-64
2023/04/12 12:23:48;;;;;;;14.43;2.90;;;14.40;99.90;;;;;;5050106;28;20124;-64
2023/04/12 12:26:27;;;;;;;16.58;2.70;;;14.20;99.90;;;;;;5058032;28;20440;-65
2023/04/12 12:28:55;;;;;;;12.93;2.40;;;14.20;99.90;;;;;;5066695;28;20115;-65
2023/04/12 12:31:24;;;;;;;14.32;2.67;;;14.40;99.90;;;;;;5059510;28;20064;-64
2023/04/12 12:33:54;;;;;;;10.18;2.05;;;14.60;99.90;;;;;;5066208;28;20455;-64
2023/04/12 12:36:19;;;;;;;13.70;2.20;;;14.60;99.90;;;;;;5064879;28;20162;-65
2023/04/12 12:38:47;;;;;;;9.68;1.88;;;14.70;99.90;;;;;;5065434;28;20040;-64
2023/04/12 12:41:23;;;;;;;8.23;1.83;;;14.60;99.90;;;;;;5063251;28;20401;-64
2023/04/12 12:43:50;;;;;;;9.90;2.00;;;14.50;99.90;;;;;;5065506;28;20048;-64
2023/04/12 12:46:17;;;;;;;12.25;2.30;;;14.20;99.90;;;;;;5060608;28;20395;-64
2023/04/12 12:48:44;;;;;;;9.45;1.92;;;14.20;99.90;;;;;;5063803;28;20894;-64
2023/04/12 12:51:11;;;;;;;9.45;1.98;;;14.10;99.90;;;;;;5058284;28;20048;-64
2023/04/12 12:53:40;;;;;;;11.93;2.65;;;14.10;99.90;;;;;;5063414;28;20208;-64
2023/04/12 12:56:09;;;;;;;12.18;2.30;;;14.00;99.90;;;;;;5065025;28;20036;-65